Time;durP1;ratioP1;P1;durP2;ratioP2;P2;SDS_P1;SDS_P2;PMS_P1;PMS_P2;Temp;Humidity;BMP_temperature;BMP_pressure;BME280_temperature;BME280_humidity;BME280_pressure;Samples;Min_cycle;Max_cycle;Signal;HPM_P1;HPM_P2
2022/03/03 00:01:44;;;;;;;18.25;12.95;;;5.40;77.20;;;;;;5084722;28;21097;-42
2022/03/03 00:04:09;;;;;;;18.85;12.95;;;5.40;77.30;;;;;;5074510;28;20040;-39
2022/03/03 00:06:38;;;;;;;19.77;13.55;;;5.30;77.50;;;;;;5085738;28;20646;-39
2022/03/03 00:09:05;;;;;;;20.77;13.43;;;5.30;77.70;;;;;;5074380;28;20031;-41
2022/03/03 00:11:31;;;;;;;21.42;14.10;;;5.30;77.80;;;;;;5085280;28;20028;-40
2022/03/03 00:13:57;;;;;;;19.92;14.20;;;5.20;78.10;;;;;;5073480;28;20029;-42
2022/03/03 00:16:23;;;;;;;18.13;11.77;;;5.20;78.30;;;;;;5086079;28;20052;-43
2022/03/03 00:18:49;;;;;;;19.35;12.77;;;5.20;78.40;;;;;;5074313;28;20111;-41
2022/03/03 00:21:15;;;;;;;19.52;13.50;;;5.20;78.50;;;;;;5084146;28;20460;-43
2022/03/03 00:23:40;;;;;;;23.70;14.32;;;5.20;78.70;;;;;;5075560;28;20052;-42
2022/03/03 00:26:06;;;;;;;22.98;13.88;;;5.10;79.00;;;;;;5081628;28;20023;-42
2022/03/03 00:28:37;;;;;;;21.27;13.82;;;5.10;79.20;;;;;;5079059;28;20021;-42
2022/03/03 00:31:03;;;;;;;23.70;14.40;;;5.10;79.40;;;;;;5080097;28;20073;-41
2022/03/03 00:33:29;;;;;;;19.23;13.32;;;5.00;79.50;;;;;;5080792;28;20041;-42
2022/03/03 00:35:54;;;;;;;20.85;14.27;;;5.00;79.60;;;;;;5078244;28;20769;-43
2022/03/03 00:38:20;;;;;;;17.15;12.57;;;5.00;79.90;;;;;;5082362;28;20524;-41
2022/03/03 00:40:45;;;;;;;17.42;12.00;;;4.90;79.90;;;;;;5075606;28;20543;-42
2022/03/03 00:43:12;;;;;;;20.17;12.95;;;4.90;79.90;;;;;;5083927;28;20085;-40
2022/03/03 00:45:38;;;;;;;17.75;11.77;;;4.90;80.00;;;;;;5073616;28;20685;-43
2022/03/03 00:48:04;;;;;;;15.60;11.52;;;4.80;80.10;;;;;;5086064;28;20028;-40
2022/03/03 00:50:30;;;;;;;17.63;12.25;;;4.80;80.20;;;;;;5074019;28;20024;-41
2022/03/03 00:52:56;;;;;;;18.33;11.88;;;4.70;80.90;;;;;;5086119;28;20031;-40
2022/03/03 00:55:22;;;;;;;16.20;12.00;;;4.70;80.60;;;;;;5073485;28;20049;-40
2022/03/03 00:57:48;;;;;;;17.05;11.50;;;4.70;80.70;;;;;;5086526;28;20076;-41
2022/03/03 01:00:14;;;;;;;18.98;12.52;;;4.60;80.80;;;;;;5073156;28;20053;-42
2022/03/03 01:02:40;;;;;;;20.20;13.02;;;4.60;80.90;;;;;;5085374;28;20475;-42
2022/03/03 01:05:06;;;;;;;19.83;11.55;;;4.60;81.20;;;;;;5076089;28;20036;-41
2022/03/03 01:07:32;;;;;;;20.33;13.23;;;4.60;81.20;;;;;;5081391;28;20016;-41
2022/03/03 01:09:58;;;;;;;19.75;14.00;;;4.60;81.40;;;;;;5079178;28;20122;-42
2022/03/03 01:12:24;;;;;;;22.05;14.32;;;4.50;81.60;;;;;;5079701;28;20419;-39
2022/03/03 01:14:49;;;;;;;18.83;13.07;;;4.50;81.80;;;;;;5079801;28;20450;-41
2022/03/03 01:17:15;;;;;;;23.23;14.05;;;4.50;81.90;;;;;;5078499;28;20027;-40
2022/03/03 01:19:42;;;;;;;17.90;12.50;;;4.40;82.00;;;;;;5087201;28;20441;-41
2022/03/03 01:22:07;;;;;;;20.20;13.13;;;4.40;82.10;;;;;;5078539;28;20027;-42
2022/03/03 01:24:33;;;;;;;20.33;13.70;;;4.40;82.20;;;;;;5087985;28;20123;-43
2022/03/03 01:26:59;;;;;;;21.83;14.25;;;4.40;82.30;;;;;;5077653;28;20044;-42
2022/03/03 01:29:25;;;;;;;19.20;13.40;;;4.40;82.40;;;;;;5088459;28;20110;-41
2022/03/03 01:31:50;;;;;;;20.73;13.45;;;4.30;82.50;;;;;;5076064;28;20123;-42
2022/03/03 01:34:16;;;;;;;21.83;14.35;;;4.30;82.70;;;;;;5087794;28;20028;-43
2022/03/03 01:36:42;;;;;;;21.42;14.15;;;4.30;83.00;;;;;;5075932;28;20079;-43
2022/03/03 01:39:07;;;;;;;21.27;14.38;;;4.30;83.00;;;;;;5088846;28;20372;-42
2022/03/03 01:41:34;;;;;;;21.65;13.02;;;4.30;83.10;;;;;;5076745;28;20021;-41
2022/03/03 01:44:02;;;;;;;20.25;14.02;;;4.20;83.00;;;;;;5088061;28;20048;-43
2022/03/03 01:46:28;;;;;;;23.38;13.70;;;4.20;83.30;;;;;;5079633;28;20029;-40
2022/03/03 01:48:53;;;;;;;20.35;12.88;;;4.20;83.40;;;;;;5085251;28;20634;-41
2022/03/03 01:51:19;;;;;;;21.52;14.75;;;4.20;83.60;;;;;;5081834;28;20035;-40
2022/03/03 01:53:44;;;;;;;19.95;13.43;;;4.10;83.70;;;;;;5083002;28;20483;-39
2022/03/03 01:56:10;;;;;;;20.13;14.23;;;4.10;83.90;;;;;;5084089;28;20032;-41
2022/03/03 01:58:39;;;;;;;21.38;14.02;;;4.10;83.90;;;;;;5080521;28;20383;-41
2022/03/03 02:01:06;;;;;;;22.15;12.88;;;4.10;84.00;;;;;;5087188;28;20683;-40
2022/03/03 02:03:31;;;;;;;19.55;12.63;;;4.00;84.00;;;;;;5076766;28;20547;-41
2022/03/03 02:05:57;;;;;;;18.45;12.45;;;4.00;84.20;;;;;;5087654;28;20119;-41
2022/03/03 02:08:23;;;;;;;21.65;14.07;;;4.00;84.30;;;;;;5077302;28;20020;-42
2022/03/03 02:10:52;;;;;;;19.48;13.07;;;4.00;84.60;;;;;;5087324;28;20066;-40
2022/03/03 02:13:18;;;;;;;21.65;14.57;;;3.90;84.70;;;;;;5076512;28;20073;-41
2022/03/03 02:15:54;;;;;;;21.35;13.82;;;3.90;84.80;;;;;;5088508;28;20396;-40
2022/03/03 02:18:20;;;;;;;18.45;12.90;;;3.90;85.00;;;;;;5075603;28;20065;-41
2022/03/03 02:20:46;;;;;;;21.38;14.15;;;3.80;85.00;;;;;;5088127;28;20157;-42
2022/03/03 02:23:11;;;;;;;25.27;14.73;;;3.80;85.30;;;;;;5074774;28;20024;-41
2022/03/03 02:25:37;;;;;;;20.58;14.05;;;3.80;85.50;;;;;;5088529;28;20113;-42
2022/03/03 02:28:03;;;;;;;22.70;13.75;;;3.80;85.70;;;;;;5076554;28;20024;-41
2022/03/03 02:30:29;;;;;;;19.40;13.05;;;3.70;85.70;;;;;;5085731;28;20360;-41
2022/03/03 02:32:54;;;;;;;23.00;13.85;;;3.70;85.80;;;;;;5079525;28;20019;-41
2022/03/03 02:35:20;;;;;;;22.17;14.55;;;3.70;86.00;;;;;;5083866;28;20384;-42
2022/03/03 02:37:46;;;;;;;18.67;12.65;;;3.60;86.10;;;;;;5081192;28;20503;-42
2022/03/03 02:40:20;;;;;;;21.13;13.18;;;3.60;86.20;;;;;;5080390;28;20048;-44
2022/03/03 02:42:49;;;;;;;20.17;13.15;;;3.60;86.40;;;;;;5082768;28;20680;-42
2022/03/03 02:45:15;;;;;;;18.67;13.13;;;3.60;86.70;;;;;;5078754;28;20505;-42
2022/03/03 02:47:42;;;;;;;19.17;13.30;;;3.60;86.80;;;;;;5085285;28;20016;-43
2022/03/03 02:50:09;;;;;;;19.80;13.40;;;3.50;86.80;;;;;;5083101;28;20521;-42
2022/03/03 02:52:35;;;;;;;21.33;14.30;;;3.50;87.10;;;;;;5084561;28;20035;-44
2022/03/03 02:55:04;;;;;;;24.85;15.48;;;3.50;87.10;;;;;;5076281;28;20047;-41
2022/03/03 03:00:14;;;;;;;21.10;14.32;;;3.50;87.70;;;;;;5075920;28;20117;-45
2022/03/03 03:02:40;;;;;;;20.27;14.35;;;3.40;87.80;;;;;;5085708;28;20020;-41
2022/03/03 03:05:06;;;;;;;24.20;15.00;;;3.40;87.90;;;;;;5075792;28;20042;-42
2022/03/03 03:07:32;;;;;;;21.63;14.23;;;3.40;88.20;;;;;;5087086;28;20028;-42
2022/03/03 03:09:58;;;;;;;28.17;14.73;;;3.40;88.20;;;;;;5074336;28;20105;-41
2022/03/03 03:12:23;;;;;;;22.05;14.82;;;3.40;88.50;;;;;;5087235;28;20134;-41
2022/03/03 03:14:49;;;;;;;20.38;13.45;;;3.30;88.50;;;;;;5074563;28;20750;-42
2022/03/03 03:17:14;;;;;;;24.05;15.05;;;3.30;88.60;;;;;;5087371;28;20028;-44
2022/03/03 03:19:40;;;;;;;22.17;14.13;;;3.30;88.90;;;;;;5076757;28;20129;-42
2022/03/03 03:22:06;;;;;;;19.80;13.27;;;3.30;89.00;;;;;;5084662;28;20031;-41
2022/03/03 03:24:32;;;;;;;24.83;14.35;;;3.20;89.00;;;;;;5079048;28;20033;-42
2022/03/03 03:26:57;;;;;;;22.45;14.98;;;3.30;89.20;;;;;;5081405;28;20028;-41
2022/03/03 03:29:23;;;;;;;21.02;14.23;;;3.20;89.30;;;;;;5081628;28;20549;-41
2022/03/03 03:31:48;;;;;;;21.52;14.68;;;3.20;89.40;;;;;;5078910;28;20028;-42
2022/03/03 03:34:14;;;;;;;19.90;13.15;;;3.20;89.50;;;;;;5084197;28;20034;-41
2022/03/03 03:36:43;;;;;;;20.15;13.30;;;3.20;89.60;;;;;;5076991;28;20028;-41
2022/03/03 03:39:08;;;;;;;20.85;14.43;;;3.20;89.60;;;;;;5085433;28;20020;-41
2022/03/03 03:41:34;;;;;;;20.65;13.85;;;3.20;89.90;;;;;;5073868;28;20109;-42
2022/03/03 03:44:02;;;;;;;22.60;14.18;;;3.10;89.90;;;;;;5086505;28;20024;-41
2022/03/03 03:46:28;;;;;;;23.50;14.95;;;3.10;90.00;;;;;;5077860;28;20062;-42
2022/03/03 03:48:56;;;;;;;20.83;14.15;;;3.10;90.10;;;;;;5070778;28;20059;-41
2022/03/03 03:51:22;;;;;;;24.33;15.32;;;3.00;90.10;;;;;;5072785;28;20028;-41
2022/03/03 03:53:48;;;;;;;18.60;13.15;;;3.00;90.20;;;;;;5085175;28;20104;-45
2022/03/03 03:56:13;;;;;;;19.42;13.32;;;3.00;90.20;;;;;;5072534;28;20025;-40
2022/03/03 03:58:39;;;;;;;20.80;13.95;;;3.00;90.30;;;;;;5086459;28;20028;-41
2022/03/03 04:01:04;;;;;;;21.30;13.77;;;3.00;90.30;;;;;;5076328;28;20385;-43
2022/03/03 04:03:29;;;;;;;19.92;12.85;;;3.00;90.30;;;;;;5082949;28;20040;-40
2022/03/03 04:05:56;;;;;;;16.88;12.20;;;2.90;90.40;;;;;;5078057;28;20025;-42
2022/03/03 04:08:21;;;;;;;20.17;12.20;;;2.90;90.40;;;;;;5081357;28;20385;-40
2022/03/03 04:10:47;;;;;;;19.40;12.48;;;2.90;90.50;;;;;;5080464;28;20460;-42
2022/03/03 04:13:15;;;;;;;19.58;12.85;;;2.80;90.50;;;;;;5078766;28;20566;-41
2022/03/03 04:15:40;;;;;;;21.10;14.38;;;2.80;90.50;;;;;;5082539;28;20023;-40
2022/03/03 04:18:06;;;;;;;20.75;14.00;;;2.80;90.70;;;;;;5076585;28;20066;-41
2022/03/03 04:20:31;;;;;;;23.08;14.48;;;2.80;90.80;;;;;;5084367;28;20018;-42
2022/03/03 04:22:57;;;;;;;20.77;14.77;;;2.70;90.90;;;;;;5074268;28;20557;-41
2022/03/03 04:25:22;;;;;;;23.25;14.65;;;2.70;91.00;;;;;;5085262;28;20039;-41
2022/03/03 04:27:48;;;;;;;22.40;14.57;;;2.70;91.10;;;;;;5074217;28;20585;-42
2022/03/03 04:30:14;;;;;;;20.63;14.57;;;2.70;91.20;;;;;;5084940;28;20354;-43
2022/03/03 04:32:40;;;;;;;18.92;13.52;;;2.70;91.20;;;;;;5072968;28;20460;-42
2022/03/03 04:35:08;;;;;;;20.75;13.82;;;2.70;91.30;;;;;;5086696;28;20020;-42
2022/03/03 04:37:34;;;;;;;23.35;15.00;;;2.70;91.40;;;;;;5072298;28;20484;-42
2022/03/03 04:39:59;;;;;;;21.95;15.20;;;2.70;91.50;;;;;;5086106;28;20070;-40
2022/03/03 04:42:25;;;;;;;23.60;15.23;;;2.60;91.60;;;;;;5075532;28;20039;-41
2022/03/03 04:44:50;;;;;;;22.50;15.00;;;2.60;91.70;;;;;;5082121;28;20375;-42
2022/03/03 04:47:16;;;;;;;20.52;14.38;;;2.60;91.70;;;;;;5078527;28;20033;-40
2022/03/03 04:49:41;;;;;;;21.75;15.05;;;2.60;91.70;;;;;;5079925;28;20483;-40
2022/03/03 04:52:10;;;;;;;23.58;16.17;;;2.60;91.80;;;;;;5079979;28;20154;-39
2022/03/03 04:54:35;;;;;;;19.63;14.73;;;2.60;91.80;;;;;;5077598;28;20052;-40
2022/03/03 04:57:01;;;;;;;22.52;14.48;;;2.60;91.90;;;;;;5082792;28;20513;-41
2022/03/03 04:59:26;;;;;;;23.40;14.68;;;2.60;91.90;;;;;;5073781;28;20040;-41
2022/03/03 05:01:52;;;;;;;20.92;13.70;;;2.60;91.90;;;;;;5083342;28;20379;-43
2022/03/03 05:04:19;;;;;;;18.98;13.35;;;2.50;91.90;;;;;;5072902;28;20458;-42
2022/03/03 05:06:45;;;;;;;19.17;13.20;;;2.50;91.90;;;;;;5083258;28;20088;-41
2022/03/03 05:09:11;;;;;;;19.58;13.05;;;2.50;92.00;;;;;;5073413;28;20058;-40
2022/03/03 05:11:37;;;;;;;20.42;13.63;;;2.50;92.00;;;;;;5085130;28;20016;-41
2022/03/03 05:14:03;;;;;;;21.88;13.68;;;2.50;92.10;;;;;;5071896;28;20020;-42
2022/03/03 05:16:28;;;;;;;19.58;13.30;;;2.50;92.10;;;;;;5085570;28;20028;-42
2022/03/03 05:18:54;;;;;;;20.55;13.35;;;2.40;92.10;;;;;;5071743;28;20021;-42
2022/03/03 05:21:20;;;;;;;21.58;14.77;;;2.40;92.20;;;;;;5084341;28;20039;-41
2022/03/03 05:23:45;;;;;;;18.75;13.63;;;2.40;92.30;;;;;;5075413;28;20680;-42
2022/03/03 05:26:11;;;;;;;20.60;12.68;;;2.40;92.40;;;;;;5081248;28;20032;-42
2022/03/03 05:28:36;;;;;;;20.70;13.10;;;2.40;92.30;;;;;;5078062;28;20071;-41
2022/03/03 05:31:02;;;;;;;18.73;11.90;;;2.40;92.40;;;;;;5079614;28;20133;-44
2022/03/03 05:33:29;;;;;;;19.10;13.57;;;2.40;92.40;;;;;;5079937;28;20064;-39
2022/03/03 05:35:59;;;;;;;19.83;13.13;;;2.40;92.50;;;;;;5076617;28;20496;-41
2022/03/03 05:38:30;;;;;;;18.08;12.27;;;2.30;92.50;;;;;;5082141;28;20104;-41
2022/03/03 05:40:57;;;;;;;16.88;12.40;;;2.30;92.50;;;;;;5075246;28;20016;-42
2022/03/03 05:43:24;;;;;;;16.85;11.82;;;2.30;92.50;;;;;;5083295;28;20035;-39
2022/03/03 05:45:51;;;;;;;19.95;12.07;;;2.20;92.60;;;;;;5073471;28;20117;-41
2022/03/03 05:48:18;;;;;;;20.23;13.15;;;2.20;92.60;;;;;;5083082;28;20089;-42
2022/03/03 05:50:45;;;;;;;16.40;11.77;;;2.20;92.60;;;;;;5073376;28;20027;-40
2022/03/03 05:53:10;;;;;;;18.23;11.50;;;2.20;92.70;;;;;;5084889;28;20107;-41
2022/03/03 05:55:44;;;;;;;17.20;12.07;;;2.20;92.80;;;;;;5071323;28;20044;-40
2022/03/03 05:58:21;;;;;;;19.83;11.55;;;2.10;92.80;;;;;;5085256;28;20188;-40
2022/03/03 06:00:49;;;;;;;16.58;11.48;;;2.10;92.80;;;;;;5077266;28;20072;-42
2022/03/03 06:03:19;;;;;;;16.48;11.85;;;2.10;92.90;;;;;;5065368;28;20131;-42
2022/03/03 06:05:50;;;;;;;20.08;13.93;;;2.10;92.90;;;;;;5081312;28;20032;-41
2022/03/03 06:08:20;;;;;;;23.48;15.63;;;2.10;93.00;;;;;;5067540;28;20029;-43
2022/03/03 06:10:50;;;;;;;24.52;16.77;;;2.10;93.20;;;;;;5080046;28;20028;-42
2022/03/03 06:13:23;;;;;;;24.42;15.57;;;2.10;93.30;;;;;;5067693;28;20030;-41
2022/03/03 06:15:49;;;;;;;25.48;16.05;;;2.10;93.40;;;;;;5079559;28;20111;-41
2022/03/03 06:18:15;;;;;;;22.55;16.08;;;2.10;93.50;;;;;;5068113;28;20032;-41
2022/03/03 06:20:44;;;;;;;27.10;15.50;;;2.10;93.60;;;;;;5077433;28;20152;-39
2022/03/03 06:23:09;;;;;;;24.95;16.25;;;2.10;93.60;;;;;;5069662;28;20443;-42
2022/03/03 06:25:37;;;;;;;25.58;15.50;;;2.10;93.70;;;;;;5075660;28;20090;-41
2022/03/03 06:28:02;;;;;;;23.38;16.20;;;2.10;93.70;;;;;;5073359;28;20025;-42
2022/03/03 06:30:30;;;;;;;23.83;15.00;;;2.10;93.70;;;;;;5071672;28;20077;-41
2022/03/03 06:32:55;;;;;;;21.67;14.52;;;2.10;93.70;;;;;;5075223;28;20029;-41
2022/03/03 06:35:21;;;;;;;20.83;13.55;;;2.10;93.70;;;;;;5069964;28;20078;-42
2022/03/03 06:37:46;;;;;;;22.70;14.95;;;2.10;93.70;;;;;;5077094;28;20048;-41
2022/03/03 06:40:12;;;;;;;21.08;15.13;;;2.10;93.80;;;;;;5068989;28;20107;-41
2022/03/03 06:42:38;;;;;;;21.85;13.95;;;2.10;93.80;;;;;;5078860;28;20048;-39
2022/03/03 06:45:04;;;;;;;16.95;12.20;;;2.10;93.80;;;;;;5068218;28;20123;-41
2022/03/03 06:47:29;;;;;;;18.27;12.10;;;2.10;93.70;;;;;;5078960;28;20103;-40
2022/03/03 06:49:55;;;;;;;18.15;12.10;;;2.10;93.70;;;;;;5067379;28;20112;-42
2022/03/03 06:52:24;;;;;;;18.90;12.40;;;2.10;93.70;;;;;;5079773;28;20494;-42
2022/03/03 06:54:52;;;;;;;19.02;12.63;;;2.10;93.80;;;;;;5066974;28;20577;-42
2022/03/03 06:57:21;;;;;;;20.98;14.00;;;2.10;93.80;;;;;;5079188;28;20044;-42
2022/03/03 06:59:47;;;;;;;21.40;14.18;;;2.20;93.80;;;;;;5067906;28;20029;-40
2022/03/03 07:02:14;;;;;;;22.13;14.63;;;2.20;93.80;;;;;;5078346;28;20028;-42
2022/03/03 07:04:40;;;;;;;20.58;13.07;;;2.20;93.80;;;;;;5068178;28;20041;-42
2022/03/03 07:07:06;;;;;;;18.95;12.82;;;2.20;93.80;;;;;;5075826;28;20030;-41
2022/03/03 07:09:32;;;;;;;20.05;13.27;;;2.30;93.70;;;;;;5071094;28;20021;-42
2022/03/03 07:12:01;;;;;;;21.75;13.93;;;2.30;93.70;;;;;;5072553;28;20073;-42
2022/03/03 07:14:30;;;;;;;17.30;11.75;;;2.30;93.70;;;;;;5073455;28;20103;-41
2022/03/03 07:16:59;;;;;;;19.88;13.60;;;2.40;93.70;;;;;;5070691;28;20035;-42
2022/03/03 07:19:37;;;;;;;18.35;12.52;;;2.40;93.70;;;;;;5073269;28;20035;-43
2022/03/03 07:22:38;;;;;;;21.25;12.98;;;2.40;93.60;;;;;;5070436;28;20028;-40
2022/03/03 07:25:10;;;;;;;17.98;12.77;;;2.50;93.60;;;;;;5070877;28;20082;-41
2022/03/03 07:27:41;;;;;;;20.20;12.70;;;2.50;93.50;;;;;;5072745;28;20033;-42
2022/03/03 07:30:10;;;;;;;20.05;12.85;;;2.50;93.50;;;;;;5072054;28;20029;-45
2022/03/03 07:32:38;;;;;;;21.80;13.05;;;2.60;93.50;;;;;;5071410;28;20092;-41
2022/03/03 07:35:10;;;;;;;18.42;13.10;;;2.70;93.50;;;;;;5073731;28;20054;-39
2022/03/03 07:37:41;;;;;;;19.25;13.27;;;2.70;93.50;;;;;;5070588;28;20033;-40
2022/03/03 07:40:09;;;;;;;17.33;12.55;;;2.80;93.50;;;;;;5074371;28;20043;-38
2022/03/03 07:42:36;;;;;;;24.40;14.45;;;2.80;93.40;;;;;;5069068;28;20047;-41
2022/03/03 07:45:04;;;;;;;20.00;13.23;;;2.90;93.40;;;;;;5076299;28;20054;-42
2022/03/03 07:47:29;;;;;;;17.30;12.63;;;2.90;93.40;;;;;;5066859;28;20024;-42
2022/03/03 07:49:56;;;;;;;18.48;12.20;;;3.00;93.30;;;;;;5078132;28;20028;-41
2022/03/03 07:52:23;;;;;;;15.80;11.23;;;3.00;93.30;;;;;;5067633;28;20078;-41
2022/03/03 07:54:48;;;;;;;17.67;11.63;;;3.10;93.20;;;;;;5076925;28;20048;-40
2022/03/03 07:57:16;;;;;;;19.20;12.32;;;3.10;93.20;;;;;;5066534;28;20091;-46
2022/03/03 08:00:09;;;;;;;16.48;11.60;;;3.20;93.20;;;;;;5078460;28;20107;-42
2022/03/03 08:02:35;;;;;;;15.50;11.63;;;3.30;93.10;;;;;;5055042;28;20080;-41
2022/03/03 08:05:04;;;;;;;15.35;11.05;;;3.40;93.00;;;;;;5078916;28;20106;-38
2022/03/03 08:07:52;;;;;;;16.88;11.25;;;3.40;93.00;;;;;;5066665;28;20083;-41
2022/03/03 08:10:18;;;;;;;18.67;12.38;;;3.50;93.00;;;;;;5076311;28;20036;-42
2022/03/03 08:12:44;;;;;;;16.55;11.48;;;3.50;93.00;;;;;;5066459;28;20592;-43
2022/03/03 08:15:11;;;;;;;15.93;10.85;;;3.60;93.00;;;;;;5078146;28;20034;-42
2022/03/03 08:17:37;;;;;;;14.68;10.63;;;3.70;92.90;;;;;;5066383;28;20031;-42
2022/03/03 08:20:05;;;;;;;14.18;10.15;;;3.70;93.20;;;;;;5078776;28;20121;-41
2022/03/03 08:22:32;;;;;;;14.50;9.98;;;3.80;92.90;;;;;;5065441;28;20115;-41
2022/03/03 08:24:58;;;;;;;15.48;10.27;;;3.80;92.90;;;;;;5076548;28;20114;-42
2022/03/03 08:27:26;;;;;;;13.57;9.90;;;3.90;92.90;;;;;;5066920;28;20114;-42
2022/03/03 08:29:53;;;;;;;15.73;10.95;;;3.90;92.90;;;;;;5072578;28;20494;-41
2022/03/03 08:32:20;;;;;;;17.70;11.23;;;4.00;92.90;;;;;;5069164;28;20107;-40
2022/03/03 08:34:54;;;;;;;18.20;12.90;;;4.10;92.90;;;;;;5071607;28;20020;-40
2022/03/03 08:37:32;;;;;;;20.50;14.13;;;4.10;92.80;;;;;;5070025;28;20563;-42
2022/03/03 08:40:00;;;;;;;19.98;13.90;;;4.20;92.70;;;;;;5071713;28;20481;-40
2022/03/03 08:42:34;;;;;;;19.70;14.02;;;4.20;92.60;;;;;;5071802;28;20039;-40
2022/03/03 08:45:03;;;;;;;18.10;13.05;;;4.30;92.50;;;;;;5070049;28;20032;-42
2022/03/03 08:47:29;;;;;;;19.08;12.50;;;4.30;92.50;;;;;;5072511;28;20028;-41
2022/03/03 08:50:09;;;;;;;15.48;11.63;;;4.30;92.50;;;;;;5075002;28;20020;-41
2022/03/03 08:52:39;;;;;;;17.05;12.15;;;4.40;92.50;;;;;;5078445;28;20026;-43
2022/03/03 08:55:10;;;;;;;18.80;11.80;;;4.50;92.50;;;;;;5082124;28;20136;-41
2022/03/03 08:57:39;;;;;;;16.77;11.63;;;4.60;92.40;;;;;;5076193;28;20526;-43
2022/03/03 09:00:10;;;;;;;16.73;10.77;;;4.60;92.50;;;;;;5084168;28;20132;-41
2022/03/03 09:02:36;;;;;;;15.27;11.05;;;4.70;92.40;;;;;;5075820;28;20016;-42
2022/03/03 09:05:03;;;;;;;16.20;12.15;;;4.70;92.40;;;;;;5083872;28;20403;-40
2022/03/03 09:07:30;;;;;;;17.23;11.43;;;4.80;92.40;;;;;;5074326;28;20024;-42
2022/03/03 09:09:55;;;;;;;17.75;10.75;;;4.80;92.30;;;;;;5083950;28;20024;-42
2022/03/03 09:12:21;;;;;;;14.80;10.68;;;4.90;92.30;;;;;;5073423;28;20016;-42
2022/03/03 09:14:47;;;;;;;16.60;11.45;;;5.00;92.30;;;;;;5085648;28;20020;-41
2022/03/03 09:17:12;;;;;;;13.32;10.50;;;5.00;92.20;;;;;;5072355;28;20021;-41
2022/03/03 09:19:38;;;;;;;16.60;12.20;;;5.10;92.10;;;;;;5085169;28;20024;-41
2022/03/03 09:22:04;;;;;;;17.95;13.65;;;5.20;92.10;;;;;;5072741;28;20021;-42
2022/03/03 09:24:30;;;;;;;21.25;14.68;;;5.20;91.80;;;;;;5085270;28;20036;-42
2022/03/03 09:26:56;;;;;;;18.15;13.45;;;5.30;91.70;;;;;;5074788;28;20115;-41
2022/03/03 09:29:22;;;;;;;20.27;14.13;;;5.40;91.80;;;;;;5082742;28;20103;-41
2022/03/03 09:31:48;;;;;;;20.92;13.23;;;5.40;91.30;;;;;;5078067;28;20027;-42
2022/03/03 09:34:14;;;;;;;19.08;12.98;;;5.50;91.30;;;;;;5079234;28;20519;-44
2022/03/03 09:36:40;;;;;;;17.73;13.00;;;5.60;91.30;;;;;;5079699;28;20029;-41
2022/03/03 09:39:06;;;;;;;14.80;11.55;;;5.60;91.30;;;;;;5078678;28;20153;-43
2022/03/03 09:41:31;;;;;;;18.08;13.13;;;5.60;91.20;;;;;;5086511;28;20110;-41
2022/03/03 09:43:58;;;;;;;18.25;13.65;;;5.70;91.20;;;;;;5078545;28;20036;-42
2022/03/03 09:46:24;;;;;;;21.05;13.90;;;5.80;91.20;;;;;;5086308;28;20020;-42
2022/03/03 09:48:49;;;;;;;17.58;13.20;;;5.80;91.00;;;;;;5078000;28;20023;-42
2022/03/03 09:51:15;;;;;;;16.65;12.60;;;5.90;91.00;;;;;;5088122;28;20024;-41
2022/03/03 09:53:42;;;;;;;16.52;11.80;;;5.90;91.10;;;;;;5076286;28;20062;-42
2022/03/03 09:56:07;;;;;;;15.50;10.88;;;6.00;91.10;;;;;;5089251;28;20047;-43
2022/03/03 09:58:33;;;;;;;16.27;11.18;;;6.00;91.10;;;;;;5075034;28;20089;-41
2022/03/03 10:00:59;;;;;;;14.35;10.02;;;6.10;91.10;;;;;;5088685;28;20031;-42
2022/03/03 10:03:32;;;;;;;14.40;11.02;;;6.10;91.10;;;;;;5075876;28;20036;-41
2022/03/03 10:06:00;;;;;;;;;;;6.20;91.20;;;;;;5069610;28;20533;-40
2022/03/03 10:08:26;;;;;;;15.45;10.27;;;6.30;91.20;;;;;;5078341;28;20252;-42
2022/03/03 10:10:55;;;;;;;24.48;14.00;;;6.30;91.10;;;;;;5069804;28;20048;-41
2022/03/03 10:13:21;;;;;;;20.85;14.07;;;6.40;90.70;;;;;;5077264;28;20024;-42
2022/03/03 10:15:53;;;;;;;23.63;14.07;;;6.50;90.40;;;;;;5071127;28;20020;-43
2022/03/03 10:18:20;;;;;;;18.10;13.00;;;6.50;90.30;;;;;;5074876;28;20031;-42
2022/03/03 10:21:02;;;;;;;18.05;13.07;;;6.60;90.30;;;;;;5073732;28;20022;-42
2022/03/03 10:23:34;;;;;;;18.02;12.02;;;6.70;90.30;;;;;;5074134;28;20031;-42
2022/03/03 10:26:03;;;;;;;17.07;12.93;;;6.80;90.40;;;;;;5073368;28;20036;-42
2022/03/03 10:28:35;;;;;;;15.18;11.40;;;6.90;90.40;;;;;;5073062;28;20749;-41
2022/03/03 10:31:02;;;;;;;19.42;12.80;;;6.90;90.50;;;;;;5074496;28;20039;-42
2022/03/03 10:33:33;;;;;;;18.88;13.80;;;6.90;90.50;;;;;;5071530;28;20025;-42
2022/03/03 10:36:24;;;;;;;16.13;13.10;;;7.00;90.30;;;;;;5075454;28;20028;-42
2022/03/03 10:39:01;;;;;;;17.40;13.05;;;7.10;90.30;;;;;;5073391;28;20043;-42
2022/03/03 10:41:44;;;;;;;15.88;11.93;;;7.10;90.40;;;;;;5074039;28;20025;-43
2022/03/03 10:44:31;;;;;;;18.92;13.40;;;7.20;90.40;;;;;;5073769;28;20043;-41
2022/03/03 10:47:11;;;;;;;18.50;13.95;;;7.30;90.30;;;;;;5069790;28;20048;-43
2022/03/03 10:49:42;;;;;;;16.15;12.00;;;7.30;90.30;;;;;;5075030;28;20824;-42
2022/03/03 10:52:19;;;;;;;15.38;10.88;;;7.30;90.30;;;;;;5070074;28;20028;-42
2022/03/03 10:54:53;;;;;;;16.65;12.05;;;7.40;90.30;;;;;;5076185;28;20125;-41
2022/03/03 10:57:45;;;;;;;14.43;11.63;;;7.50;90.20;;;;;;5069580;28;20041;-44
2022/03/03 11:00:20;;;;;;;14.70;11.20;;;7.50;90.10;;;;;;5077273;28;20479;-42
2022/03/03 11:02:50;;;;;;;15.32;10.23;;;7.60;90.10;;;;;;5067794;28;20094;-42
2022/03/03 11:05:18;;;;;;;14.80;11.23;;;7.70;90.10;;;;;;5076886;28;20036;-43
2022/03/03 11:07:46;;;;;;;15.25;11.50;;;7.70;90.00;;;;;;5068847;28;20016;-41
2022/03/03 11:10:15;;;;;;;14.43;10.98;;;7.70;89.80;;;;;;5075681;28;20345;-41
2022/03/03 11:12:42;;;;;;;16.00;11.23;;;7.80;89.70;;;;;;5069879;28;20060;-41
2022/03/03 11:15:09;;;;;;;14.90;11.40;;;7.90;89.70;;;;;;5073231;28;20039;-41
2022/03/03 11:17:35;;;;;;;13.32;11.18;;;7.90;89.60;;;;;;5072174;28;20036;-41
2022/03/03 11:20:02;;;;;;;14.77;11.98;;;8.00;89.60;;;;;;5071129;28;20139;-42
2022/03/03 11:22:31;;;;;;;16.10;11.57;;;8.00;89.50;;;;;;5075957;28;20028;-41
2022/03/03 11:24:58;;;;;;;18.42;13.70;;;8.10;89.50;;;;;;5067259;28;20464;-42
2022/03/03 11:27:38;;;;;;;18.98;13.65;;;8.20;88.60;;;;;;5077318;28;20025;-42
2022/03/03 11:30:18;;;;;;;15.63;11.88;;;8.20;87.40;;;;;;5068232;28;20024;-42
2022/03/03 11:32:46;;;;;;;14.60;11.77;;;8.30;87.50;;;;;;5076725;28;20036;-42
2022/03/03 11:35:15;;;;;;;17.35;12.50;;;8.40;87.10;;;;;;5085349;28;20050;-42
2022/03/03 11:37:43;;;;;;;16.10;12.13;;;8.40;86.50;;;;;;5075670;28;20024;-41
2022/03/03 11:40:12;;;;;;;15.50;12.20;;;8.50;86.20;;;;;;5084864;28;20119;-42
2022/03/03 11:42:49;;;;;;;17.48;13.40;;;8.60;85.20;;;;;;5075241;28;20733;-43
2022/03/03 11:45:18;;;;;;;16.60;13.05;;;8.60;83.70;;;;;;5085530;28;20536;-40
2022/03/03 11:47:46;;;;;;;16.83;13.05;;;8.70;82.90;;;;;;5074113;28;20016;-44
2022/03/03 11:50:25;;;;;;;17.63;12.23;;;8.70;82.80;;;;;;5086027;28;20024;-42
2022/03/03 11:52:57;;;;;;;16.02;11.77;;;8.80;82.90;;;;;;5076670;28;20228;-39
2022/03/03 11:55:39;;;;;;;14.82;11.57;;;8.80;82.90;;;;;;5066149;28;20060;-43
2022/03/03 11:58:09;;;;;;;14.70;11.07;;;8.90;82.60;;;;;;5077120;28;20029;-41
2022/03/03 12:01:05;;;;;;;12.07;10.25;;;9.00;82.90;;;;;;5064832;28;20039;-43
2022/03/03 12:03:52;;;;;;;13.00;9.70;;;9.00;83.00;;;;;;5068949;28;20044;-41
2022/03/03 12:06:20;;;;;;;13.98;10.55;;;9.10;83.10;;;;;;5084768;28;20036;-42
2022/03/03 12:08:46;;;;;;;15.05;11.13;;;9.10;82.80;;;;;;5074668;28;20472;-42
2022/03/03 12:11:16;;;;;;;13.23;10.85;;;9.20;81.40;;;;;;5085182;28;20105;-41
2022/03/03 12:13:50;;;;;;;14.40;10.82;;;9.30;81.40;;;;;;5074149;28;20039;-40
2022/03/03 12:16:30;;;;;;;13.20;10.45;;;9.30;80.70;;;;;;5084121;28;20024;-41
2022/03/03 12:18:55;;;;;;;12.32;9.90;;;9.30;80.40;;;;;;5074515;28;20047;-42
2022/03/03 12:21:35;;;;;;;11.70;9.18;;;9.40;80.10;;;;;;5084016;28;20032;-42
2022/03/03 12:24:13;;;;;;;11.30;9.23;;;9.50;80.30;;;;;;5077624;28;20024;-43
2022/03/03 12:26:51;;;;;;;11.23;9.15;;;9.50;80.10;;;;;;5066932;28;20110;-40
2022/03/03 12:29:50;;;;;;;12.07;9.82;;;9.60;80.10;;;;;;5076452;28;20093;-41
2022/03/03 12:32:29;;;;;;;12.38;10.60;;;9.60;79.90;;;;;;5068115;28;20040;-41
2022/03/03 12:35:01;;;;;;;12.35;10.68;;;9.70;79.40;;;;;;5073360;28;20210;-43
2022/03/03 12:37:28;;;;;;;13.48;11.13;;;9.80;78.80;;;;;;5067458;28;20017;-42
2022/03/03 12:40:00;;;;;;;14.60;10.45;;;9.80;77.90;;;;;;5076085;28;20033;-40
2022/03/03 12:42:28;;;;;;;13.57;9.70;;;9.90;77.70;;;;;;5066935;28;20012;-41
2022/03/03 12:44:59;;;;;;;11.32;9.80;;;9.90;77.50;;;;;;5076694;28;20039;-42
2022/03/03 12:47:36;;;;;;;10.95;8.80;;;10.00;76.30;;;;;;5067041;28;20016;-42